Terminal Aerodrome Forecast
Issued by NWS Spokane, WA

Home | Current Version | Previous Version | Text Only | Print | Product List | Glossary On
Versions: 1 2 3 4 5 6 7 8 9 10 11 12 13 14
000
FTUS46 KOTX 271125
TAFGEG
TAF
KGEG 271125Z 2712/2812 20010KT P6SM BKN200
     FM271700 19013G21KT P6SM BKN150
     FM272100 23020G28KT P6SM BKN120 OVC150
     FM280400 23014KT P6SM FEW200
     FM281000 18009KT P6SM BKN200=

USA.gov is the U.S. government's official web portal to all federal, state and local government web resources and services.